Davison Army Air Field Fort Belvoir US
ICAO: KDAA
IATA: DAA
Category: Medium
Scheduled Services: No

Elevation: 73 ft
TransAlt. 18000 ft.

Airport Communications:
POTOMAC APP:119.85
ATIS:128.175
CLNC DEL:24.52
CTAF:126.3
POTOMAC DEP:118.1
GND:121.9
ARNG OPS:52.75
BASE OPS:139.4
PMSV METRO:139.4
PTD:139.4
TWR:126.3

KDAA Zoom In..

If you have problems with the map follow the link
https://www.worldairports.se/pages/airport.php?
ICAO=KDAA

Runways:

(A) RW 14 length 5619 ft width 75 ft
---- / hdg 142

(B) RW 32 length 5619 ft width 75 ft
ILS 108.90 / hdg 322

Location; KDAA
Day. 14 / Time. 21.56 Zulu
* Altimeter: 30.31
* Temperature: 08° c. 46.4°f.
* Wind from: 000° Speed 00 kn.
Dewpoint: 05° c.
Visibility: 10 Statute Miles.
Clouds: Broken 3700 ft.
Conditions: Light Rain.

KDAA 142156Z AUTO 00000KT 10SM -RA BKN037 08/05 A3031 RMK AO2 SLP268 P0001 T00750053 TSNO $


Wind - Calm.

 
 
jpsmedia.com for Web Design worldairports.se 2018   terms of use